Time;durP1;ratioP1;P1;durP2;ratioP2;P2;SDS_P1;SDS_P2;PMS_P1;PMS_P2;Temp;Humidity;BMP_temperature;BMP_pressure;BME280_temperature;BME280_humidity;BME280_pressure;Samples;Min_cycle;Max_cycle;Signal;HPM_P1;HPM_P2
2023/12/05 00:00:22;;;;;;;;;21.33;19.67;;;;;;;;6490558;46;8901;-54
2023/12/05 00:06:25;;;;;;;;;61.00;45.33;;;;;;;;6490735;46;8874;-55
2023/12/05 00:12:28;;;;;;;;;79.33;59.67;;;;;;;;6490416;39;8980;-57
2023/12/05 00:18:31;;;;;;;;;52.00;46.67;;;;;;;;6490977;31;8895;-52
2023/12/05 00:24:33;;;;;;;;;65.67;52.00;;;;;;;;6490761;46;8877;-55
2023/12/05 00:30:37;;;;;;;;;47.33;40.00;;;;;;;;6490344;46;8889;-52
2023/12/05 00:36:39;;;;;;;;;66.50;52.50;;;;;;;;6490791;31;8886;-55
2023/12/05 00:42:41;;;;;;;;;71.67;54.00;;;;;;;;6490228;39;8890;-55
2023/12/05 00:48:44;;;;;;;;;72.67;55.67;;;;;;;;6490241;31;9010;-51
2023/12/05 00:54:46;;;;;;;;;65.33;53.33;;;;;;;;6489807;46;8862;-53
2023/12/05 01:00:49;;;;;;;;;66.33;54.33;;;;;;;;6491245;39;8905;-54
2023/12/05 01:06:52;;;;;;;;;67.33;56.00;;;;;;;;6489096;39;8894;-52
2023/12/05 01:12:54;;;;;;;;;70.67;55.00;;;;;;;;6489714;46;8862;-56
2023/12/05 01:18:58;;;;;;;;;64.00;51.67;;;;;;;;6490175;39;9102;-55
2023/12/05 01:25:00;;;;;;;;;65.33;50.33;;;;;;;;6490260;39;8869;-56
2023/12/05 01:31:02;;;;;;;;;62.67;49.00;;;;;;;;6490130;46;8929;-55
2023/12/05 01:37:05;;;;;;;;;58.33;50.67;;;;;;;;6490016;31;8900;-54
2023/12/05 01:43:08;;;;;;;;;64.67;51.00;;;;;;;;6490826;39;8855;-51
2023/12/05 01:49:10;;;;;;;;;72.00;54.67;;;;;;;;6489210;39;8917;-57
2023/12/05 01:55:26;;;;;;;;;74.00;55.00;;;;;;;;6490495;39;8998;-51
2023/12/05 02:01:28;;;;;;;;;64.67;51.00;;;;;;;;6490150;39;8889;-55
2023/12/05 02:07:32;;;;;;;;;55.00;48.33;;;;;;;;6490626;31;9047;-54
2023/12/05 02:13:34;;;;;;;;;70.00;55.00;;;;;;;;6489093;46;8877;-54
2023/12/05 02:19:54;;;;;;;;;66.33;52.33;;;;;;;;6489677;39;8875;-54
2023/12/05 02:25:56;;;;;;;;;68.00;52.33;;;;;;;;6489657;31;8861;-53
2023/12/05 02:32:00;;;;;;;;;65.67;53.00;;;;;;;;6489717;46;8843;-53
2023/12/05 02:38:09;;;;;;;;;67.00;55.67;;;;;;;;6488680;31;8861;-57
2023/12/05 02:44:14;;;;;;;;;68.00;54.67;;;;;;;;6489004;39;8772;-53
2023/12/05 02:50:18;;;;;;;;;68.67;51.67;;;;;;;;6489792;46;9039;-56
2023/12/05 02:56:20;;;;;;;;;64.00;52.67;;;;;;;;6489488;31;8917;-53
2023/12/05 03:02:22;;;;;;;;;72.33;57.00;;;;;;;;6556355;36;301879;-55
2023/12/05 03:08:24;;;;;;;;;68.00;54.67;;;;;;;;6488996;31;8836;-54
2023/12/05 03:14:26;;;;;;;;;66.33;54.00;;;;;;;;6490324;31;8922;-56
2023/12/05 03:20:29;;;;;;;;;73.00;54.33;;;;;;;;6489270;31;8875;-51
2023/12/05 03:26:31;;;;;;;;;61.33;51.33;;;;;;;;6489324;31;9017;-54
2023/12/05 03:32:35;;;;;;;;;72.33;57.00;;;;;;;;6490330;46;8855;-55
2023/12/05 03:38:38;;;;;;;;;67.33;55.00;;;;;;;;6490017;39;9098;-53
2023/12/05 03:44:41;;;;;;;;;65.00;54.67;;;;;;;;6491356;39;8879;-53
2023/12/05 03:50:43;;;;;;;;;65.67;54.00;;;;;;;;6492211;39;8961;-53
2023/12/05 03:56:45;;;;;;;;;74.67;57.00;;;;;;;;6491351;39;8936;-56
2023/12/05 04:02:48;;;;;;;;;70.00;56.00;;;;;;;;6491776;46;8828;-55
2023/12/05 04:08:51;;;;;;;;;64.33;50.67;;;;;;;;6490514;39;8884;-51
2023/12/05 04:14:54;;;;;;;;;66.33;55.00;;;;;;;;6490207;39;8898;-51
2023/12/05 04:20:56;;;;;;;;;65.67;52.33;;;;;;;;6490614;46;8885;-54
2023/12/05 04:26:58;;;;;;;;;51.00;46.67;;;;;;;;6490766;39;8896;-53
2023/12/05 04:33:01;;;;;;;;;63.00;50.67;;;;;;;;6491217;31;8845;-53
2023/12/05 04:39:05;;;;;;;;;63.00;49.33;;;;;;;;6490411;39;8844;-53
2023/12/05 04:45:08;;;;;;;;;65.33;51.33;;;;;;;;6490194;39;8900;-54
2023/12/05 04:51:10;;;;;;;;;55.00;45.33;;;;;;;;6490639;39;8884;-56
2023/12/05 04:57:14;;;;;;;;;62.00;50.00;;;;;;;;6490563;39;8948;-53
2023/12/05 05:03:17;;;;;;;;;59.33;46.00;;;;;;;;6466469;39;9136;-57
2023/12/05 05:09:19;;;;;;;;;44.67;41.67;;;;;;;;6492255;46;8890;-54
2023/12/05 05:16:29;;;;;;;;;47.33;44.00;;;;;;;;6493546;39;9619;-54
2023/12/05 05:22:33;;;;;;;;;49.00;41.33;;;;;;;;6493257;31;8932;-56
2023/12/05 05:28:35;;;;;;;;;50.75;44.25;;;;;;;;6492835;39;8878;-55
2023/12/05 05:34:37;;;;;;;;;55.00;44.00;;;;;;;;6490101;39;8977;-57
2023/12/05 05:40:42;;;;;;;;;62.00;45.67;;;;;;;;6493115;31;9108;-56
2023/12/05 05:46:45;;;;;;;;;51.50;45.00;;;;;;;;6492192;39;8952;-55
2023/12/05 05:52:51;;;;;;;;;51.00;44.50;;;;;;;;6491847;46;9010;-55
2023/12/05 05:58:55;;;;;;;;;49.00;41.25;;;;;;;;6491657;46;8892;-58
2023/12/05 06:04:57;;;;;;;;;41.50;39.75;;;;;;;;6311115;46;10000646;-54
2023/12/05 06:10:59;;;;;;;;;50.67;44.00;;;;;;;;6491594;31;9078;-55
2023/12/05 06:17:06;;;;;;;;;48.67;42.67;;;;;;;;6490948;39;8880;-55
2023/12/05 06:23:10;;;;;;;;;53.67;45.00;;;;;;;;6490782;46;8856;-55
2023/12/05 06:29:12;;;;;;;;;57.67;45.67;;;;;;;;6491645;31;8872;-54
2023/12/05 06:35:15;;;;;;;;;63.00;49.25;;;;;;;;6309535;31;10000962;-57
2023/12/05 06:41:17;;;;;;;;;41.75;36.50;;;;;;;;6485309;39;8939;-59
2023/12/05 06:47:19;;;;;;;;;62.25;49.50;;;;;;;;6485288;39;9043;-56
2023/12/05 06:53:23;;;;;;;;;49.00;42.50;;;;;;;;6487880;47;8921;-57
2023/12/05 06:59:26;;;;;;;;;59.50;46.00;;;;;;;;6490044;39;8951;-60
2023/12/05 07:05:30;;;;;;;;;45.00;40.25;;;;;;;;6491881;46;8944;-59
2023/12/05 07:11:33;;;;;;;;;53.25;44.25;;;;;;;;6491410;39;8960;-59
2023/12/05 07:17:37;;;;;;;;;51.50;43.00;;;;;;;;6492414;39;8913;-59
2023/12/05 07:23:43;;;;;;;;;46.00;40.67;;;;;;;;6491816;46;8984;-59
2023/12/05 07:29:56;;;;;;;;;51.00;43.50;;;;;;;;6492962;39;8827;-59
2023/12/05 07:36:04;;;;;;;;;51.50;43.00;;;;;;;;6489860;31;8992;-60
2023/12/05 07:42:08;;;;;;;;;55.25;45.25;;;;;;;;6490997;39;8946;-61
2023/12/05 07:48:12;;;;;;;;;59.50;46.25;;;;;;;;6492145;39;8974;-61
2023/12/05 07:54:17;;;;;;;;;55.50;44.75;;;;;;;;6487271;39;9109;-61
2023/12/05 08:00:20;;;;;;;;;53.25;45.00;;;;;;;;6491510;31;8952;-59
2023/12/05 08:06:22;;;;;;;;;58.25;46.50;;;;;;;;6492271;39;8959;-63
2023/12/05 08:12:24;;;;;;;;;56.25;45.00;;;;;;;;6491498;31;8910;-59
2023/12/05 08:18:27;;;;;;;;;50.00;42.25;;;;;;;;6490549;46;9005;-61
2023/12/05 08:24:30;;;;;;;;;58.50;48.50;;;;;;;;6487734;39;8997;-61
2023/12/05 08:30:33;;;;;;;;;58.75;48.00;;;;;;;;6489254;39;9126;-59
2023/12/05 08:36:36;;;;;;;;;48.75;45.00;;;;;;;;6488858;39;8935;-63
2023/12/05 08:42:42;;;;;;;;;51.25;46.00;;;;;;;;6489301;39;9010;-60
2023/12/05 08:48:45;;;;;;;;;46.75;41.50;;;;;;;;6489007;39;8906;-60
2023/12/05 08:54:47;;;;;;;;;47.75;44.75;;;;;;;;6491201;39;8956;-60
2023/12/05 09:00:50;;;;;;;;;49.75;43.75;;;;;;;;6490838;46;8968;-58
2023/12/05 09:06:55;;;;;;;;;61.00;46.00;;;;;;;;6489252;46;8886;-61
2023/12/05 09:12:58;;;;;;;;;56.25;46.00;;;;;;;;6489059;39;8899;-60
2023/12/05 09:19:04;;;;;;;;;44.00;39.00;;;;;;;;6489066;46;9133;-60
2023/12/05 09:25:07;;;;;;;;;46.00;42.00;;;;;;;;6488258;46;8927;-60
2023/12/05 09:31:10;;;;;;;;;46.25;43.75;;;;;;;;6490559;39;8957;-61
2023/12/05 09:37:12;;;;;;;;;52.25;44.00;;;;;;;;6486951;46;9138;-61
2023/12/05 09:43:17;;;;;;;;;53.75;45.75;;;;;;;;6490119;39;8871;-62
2023/12/05 09:49:27;;;;;;;;;59.75;44.50;;;;;;;;6489457;31;8927;-61
2023/12/05 09:55:33;;;;;;;;;55.50;44.50;;;;;;;;6488579;46;8926;-61
2023/12/05 10:01:36;;;;;;;;;49.75;42.25;;;;;;;;6489093;39;8940;-61
2023/12/05 10:07:41;;;;;;;;;50.75;43.25;;;;;;;;6487297;39;8965;-62
2023/12/05 10:13:44;;;;;;;;;59.50;44.50;;;;;;;;6473185;31;8848;-61
2023/12/05 10:19:47;;;;;;;;;54.75;44.25;;;;;;;;6490088;39;8926;-61
2023/12/05 10:25:52;;;;;;;;;61.50;49.75;;;;;;;;6489032;39;9408;-61
2023/12/05 10:31:54;;;;;;;;;54.25;44.75;;;;;;;;6490696;46;8957;-61
2023/12/05 10:37:56;;;;;;;;;58.50;48.25;;;;;;;;6488250;39;9066;-61
2023/12/05 10:44:01;;;;;;;;;58.25;49.50;;;;;;;;6485006;39;9524;-61
2023/12/05 10:50:06;;;;;;;;;63.75;49.50;;;;;;;;6487677;39;8946;-63
2023/12/05 10:56:13;;;;;;;;;55.50;42.50;;;;;;;;6488087;39;8973;-62
2023/12/05 11:02:19;;;;;;;;;63.25;47.00;;;;;;;;6483569;47;8994;-61
2023/12/05 11:08:23;;;;;;;;;53.25;45.25;;;;;;;;6486366;46;8946;-60
2023/12/05 11:14:30;;;;;;;;;54.50;47.00;;;;;;;;6487188;39;8943;-61
2023/12/05 11:20:55;;;;;;;;;39.25;35.75;;;;;;;;6484702;47;8930;-60
2023/12/05 11:27:34;;;;;;;;;52.25;44.75;;;;;;;;6486486;47;8964;-61
2023/12/05 11:33:58;;;;;;;;;52.50;46.25;;;;;;;;6485921;31;9590;-61
2023/12/05 11:40:03;;;;;;;;;53.25;46.25;;;;;;;;6485307;39;9686;-60
2023/12/05 11:46:06;;;;;;;;;56.50;45.50;;;;;;;;6486941;39;9531;-61
2023/12/05 11:52:10;;;;;;;;;46.00;39.25;;;;;;;;6486808;46;8925;-61
2023/12/05 11:58:33;;;;;;;;;57.25;46.25;;;;;;;;6488276;39;9066;-62
2023/12/05 12:04:39;;;;;;;;;51.25;44.00;;;;;;;;6487998;46;8943;-62
2023/12/05 12:10:41;;;;;;;;;61.00;48.75;;;;;;;;6487424;39;8891;-62
2023/12/05 12:16:46;;;;;;;;;36.25;29.50;;;;;;;;6487533;39;8930;-58
2023/12/05 12:22:51;;;;;;;;;57.50;48.50;;;;;;;;6487229;46;9047;-61
2023/12/05 12:28:53;;;;;;;;;57.50;45.75;;;;;;;;6488129;31;8980;-60
2023/12/05 12:35:06;;;;;;;;;62.25;49.75;;;;;;;;6488563;46;8935;-60
2023/12/05 12:41:09;;;;;;;;;52.50;46.75;;;;;;;;6488710;46;8957;-59
2023/12/05 12:47:13;;;;;;;;;51.00;43.75;;;;;;;;6489818;31;8980;-62
2023/12/05 12:53:17;;;;;;;;;47.00;41.50;;;;;;;;6488901;46;8959;-61
2023/12/05 12:59:20;;;;;;;;;48.00;44.00;;;;;;;;6489108;39;8997;-61
2023/12/05 13:05:31;;;;;;;;;43.00;37.00;;;;;;;;6488189;39;8912;-60
2023/12/05 13:11:35;;;;;;;;;62.75;46.00;;;;;;;;6487979;31;9547;-61
2023/12/05 13:18:05;;;;;;;;;46.25;40.00;;;;;;;;6485466;39;8963;-63
2023/12/05 13:24:13;;;;;;;;;48.25;42.25;;;;;;;;6487633;39;9051;-62
2023/12/05 13:30:26;;;;;;;;;63.75;48.00;;;;;;;;6486983;31;8922;-60
2023/12/05 13:36:29;;;;;;;;;51.00;45.25;;;;;;;;6486529;39;8931;-60
2023/12/05 13:42:34;;;;;;;;;53.50;44.25;;;;;;;;6488361;39;9069;-63
2023/12/05 13:48:41;;;;;;;;;51.75;44.25;;;;;;;;6487289;39;8919;-61
2023/12/05 13:54:46;;;;;;;;;55.75;46.50;;;;;;;;6488453;39;8926;-61
2023/12/05 14:00:50;;;;;;;;;53.00;45.50;;;;;;;;6487072;39;9005;-60
2023/12/05 14:06:53;;;;;;;;;54.00;45.50;;;;;;;;6489393;31;8982;-60
2023/12/05 14:12:57;;;;;;;;;48.25;43.75;;;;;;;;6487782;31;9068;-61
2023/12/05 14:18:59;;;;;;;;;52.50;45.75;;;;;;;;6479762;39;8977;-61
2023/12/05 14:25:06;;;;;;;;;53.00;44.25;;;;;;;;6484069;39;8903;-62
2023/12/05 14:31:09;;;;;;;;;53.25;45.50;;;;;;;;6469726;46;9039;-59
2023/12/05 14:37:14;;;;;;;;;63.50;48.75;;;;;;;;6483264;39;8975;-61
2023/12/05 14:43:18;;;;;;;;;60.25;49.75;;;;;;;;6488170;39;8991;-63
2023/12/05 14:49:22;;;;;;;;;60.00;48.75;;;;;;;;6488409;39;8920;-62
2023/12/05 14:55:24;;;;;;;;;65.00;50.50;;;;;;;;6486910;31;8961;-62
2023/12/05 15:01:27;;;;;;;;;63.50;47.00;;;;;;;;6487822;39;9836;-61
2023/12/05 15:07:30;;;;;;;;;50.25;41.75;;;;;;;;6487765;47;8925;-60
2023/12/05 15:13:32;;;;;;;;;56.67;46.00;;;;;;;;6488382;31;9012;-59
2023/12/05 15:19:34;;;;;;;;;47.75;43.25;;;;;;;;6488010;39;8953;-61
2023/12/05 15:25:37;;;;;;;;;47.00;43.50;;;;;;;;6488923;46;8955;-61
2023/12/05 15:31:42;;;;;;;;;64.50;50.00;;;;;;;;6489560;39;8925;-59
2023/12/05 15:37:46;;;;;;;;;44.00;42.00;;;;;;;;6490838;39;8928;-61
2023/12/05 15:43:49;;;;;;;;;54.75;45.75;;;;;;;;6491119;39;9009;-59
2023/12/05 15:49:52;;;;;;;;;52.25;44.00;;;;;;;;6489556;39;8862;-60
2023/12/05 15:55:54;;;;;;;;;63.25;47.50;;;;;;;;6490458;39;9515;-60
2023/12/05 16:01:57;;;;;;;;;49.75;44.00;;;;;;;;6489634;46;8942;-60
2023/12/05 16:08:00;;;;;;;;;50.50;44.50;;;;;;;;6489848;39;8883;-59
2023/12/05 16:14:02;;;;;;;;;58.75;47.00;;;;;;;;6489799;39;8846;-60
2023/12/05 16:20:05;;;;;;;;;62.25;49.25;;;;;;;;6489957;39;8906;-60
2023/12/05 16:26:07;;;;;;;;;54.50;46.75;;;;;;;;6488504;46;8897;-59
2023/12/05 16:32:10;;;;;;;;;64.25;50.00;;;;;;;;6489594;39;8906;-59
2023/12/05 16:38:13;;;;;;;;;53.50;45.25;;;;;;;;6488894;31;8972;-61
2023/12/05 16:44:15;;;;;;;;;62.50;48.50;;;;;;;;6489815;39;8938;-60
2023/12/05 16:50:17;;;;;;;;;59.50;49.00;;;;;;;;6489334;31;8924;-60
2023/12/05 16:56:20;;;;;;;;;59.25;48.00;;;;;;;;6489618;39;9691;-59
2023/12/05 17:02:23;;;;;;;;;63.00;49.50;;;;;;;;6489709;39;9055;-60
2023/12/05 17:08:26;;;;;;;;;64.50;52.50;;;;;;;;6488340;39;8867;-62
2023/12/05 17:14:31;;;;;;;;;53.75;46.50;;;;;;;;6487731;46;8924;-60
2023/12/05 17:20:38;;;;;;;;;55.25;45.50;;;;;;;;6486565;31;8943;-57
2023/12/05 17:26:40;;;;;;;;;55.75;46.75;;;;;;;;6487959;39;8902;-58
2023/12/05 17:32:45;;;;;;;;;53.00;45.00;;;;;;;;6489712;31;8903;-59
2023/12/05 17:38:47;;;;;;;;;62.00;49.25;;;;;;;;6488682;39;8954;-57
2023/12/05 17:44:51;;;;;;;;;42.00;39.50;;;;;;;;6488664;46;8956;-59
2023/12/05 17:50:54;;;;;;;;;53.00;45.50;;;;;;;;6488923;31;8881;-57
2023/12/05 17:56:56;;;;;;;;;54.75;43.75;;;;;;;;6488668;31;8891;-58
2023/12/05 18:02:58;;;;;;;;;50.00;43.25;;;;;;;;6489433;39;9628;-59
2023/12/05 18:09:01;;;;;;;;;50.00;45.50;;;;;;;;6488028;46;8902;-60
2023/12/05 18:15:04;;;;;;;;;54.50;43.50;;;;;;;;6489338;39;8909;-58
2023/12/05 18:21:08;;;;;;;;;57.00;49.75;;;;;;;;6489451;31;9523;-57
2023/12/05 18:27:13;;;;;;;;;47.00;43.50;;;;;;;;6488704;46;8950;-59
2023/12/05 18:33:16;;;;;;;;;57.25;47.25;;;;;;;;6489695;31;8843;-55
2023/12/05 18:39:19;;;;;;;;;51.50;45.75;;;;;;;;6489102;39;9676;-56
2023/12/05 18:45:21;;;;;;;;;53.25;45.25;;;;;;;;6487428;39;8847;-57
2023/12/05 18:51:24;;;;;;;;;53.00;46.25;;;;;;;;6488876;39;8897;-60
2023/12/05 18:57:28;;;;;;;;;46.75;37.75;;;;;;;;6488944;31;8922;-59
2023/12/05 19:03:30;;;;;;;;;58.75;43.75;;;;;;;;6488872;39;9037;-59
2023/12/05 19:09:32;;;;;;;;;49.00;41.75;;;;;;;;6488714;39;8921;-56
2023/12/05 19:15:36;;;;;;;;;47.75;39.75;;;;;;;;6488113;39;9584;-58
2023/12/05 19:21:38;;;;;;;;;51.25;39.00;;;;;;;;6488123;47;8846;-57
2023/12/05 19:27:41;;;;;;;;;44.00;38.75;;;;;;;;6488264;39;9407;-56
2023/12/05 19:33:44;;;;;;;;;41.75;37.75;;;;;;;;6488230;39;8881;-56
2023/12/05 19:39:48;;;;;;;;;33.00;31.25;;;;;;;;6487108;47;8983;-55
2023/12/05 19:45:51;;;;;;;;;51.25;44.75;;;;;;;;6488300;47;8925;-58
2023/12/05 19:51:54;;;;;;;;;57.25;46.00;;;;;;;;6488223;39;9592;-58
2023/12/05 19:57:56;;;;;;;;;50.25;45.75;;;;;;;;6487178;31;8938;-59
2023/12/05 20:04:00;;;;;;;;;55.50;48.25;;;;;;;;6487686;39;8948;-58
2023/12/05 20:10:04;;;;;;;;;54.25;45.50;;;;;;;;6488067;39;8878;-57
2023/12/05 20:16:13;;;;;;;;;55.75;47.00;;;;;;;;6489548;39;8862;-60
2023/12/05 20:22:19;;;;;;;;;51.50;44.00;;;;;;;;6488640;39;8903;-56
2023/12/05 20:28:21;;;;;;;;;56.50;45.25;;;;;;;;6489762;46;8969;-58
2023/12/05 20:34:23;;;;;;;;;45.00;40.25;;;;;;;;6490273;39;8894;-55
2023/12/05 20:40:26;;;;;;;;;54.00;45.25;;;;;;;;6488589;46;8961;-58
2023/12/05 20:46:31;;;;;;;;;59.00;50.50;;;;;;;;6490201;39;8886;-60
2023/12/05 20:52:33;;;;;;;;;61.00;44.50;;;;;;;;6489550;39;8854;-59
2023/12/05 20:58:39;;;;;;;;;53.25;46.00;;;;;;;;6490057;39;9018;-56
2023/12/05 21:04:41;;;;;;;;;58.50;48.00;;;;;;;;6489511;39;8866;-56
2023/12/05 21:10:43;;;;;;;;;55.75;45.25;;;;;;;;6490217;39;9417;-59
2023/12/05 21:16:45;;;;;;;;;53.75;45.25;;;;;;;;6489887;46;8849;-57
2023/12/05 21:22:49;;;;;;;;;53.00;43.00;;;;;;;;6488719;46;8882;-57
2023/12/05 21:28:51;;;;;;;;;54.00;45.25;;;;;;;;6490245;39;8906;-59
2023/12/05 21:34:53;;;;;;;;;61.75;51.25;;;;;;;;6488795;46;8961;-57
2023/12/05 21:40:57;;;;;;;;;59.75;49.00;;;;;;;;6489743;39;8961;-57
2023/12/05 21:47:00;;;;;;;;;55.50;46.25;;;;;;;;6489571;46;8846;-57
2023/12/05 21:53:06;;;;;;;;;57.75;47.75;;;;;;;;6489403;39;8913;-58
2023/12/05 21:59:09;;;;;;;;;54.00;46.50;;;;;;;;6489329;39;8927;-56
2023/12/05 22:05:12;;;;;;;;;55.00;47.00;;;;;;;;6488694;31;9001;-56
2023/12/05 22:11:14;;;;;;;;;57.25;48.75;;;;;;;;6489346;39;8850;-55
2023/12/05 22:17:18;;;;;;;;;42.75;38.75;;;;;;;;6489916;31;8898;-58
2023/12/05 22:23:24;;;;;;;;;54.50;43.75;;;;;;;;6488310;39;8847;-57
2023/12/05 22:29:27;;;;;;;;;53.25;45.00;;;;;;;;6489177;39;8878;-57
2023/12/05 22:35:30;;;;;;;;;56.50;44.25;;;;;;;;6488430;39;9614;-58
2023/12/05 22:41:32;;;;;;;;;54.25;44.50;;;;;;;;6489156;39;8992;-55
2023/12/05 22:47:37;;;;;;;;;59.00;45.25;;;;;;;;6489335;39;8867;-56
2023/12/05 22:53:42;;;;;;;;;60.75;46.50;;;;;;;;6489304;39;8889;-57
2023/12/05 22:59:45;;;;;;;;;49.25;44.50;;;;;;;;6489439;39;8906;-57
2023/12/05 23:05:48;;;;;;;;;47.25;41.25;;;;;;;;6488145;39;9687;-53
2023/12/05 23:11:51;;;;;;;;;55.67;48.67;;;;;;;;6487960;46;8918;-55
2023/12/05 23:17:53;;;;;;;;;57.00;49.00;;;;;;;;6488336;46;8846;-56
2023/12/05 23:23:55;;;;;;;;;53.25;45.00;;;;;;;;6487695;47;8917;-57
2023/12/05 23:30:02;;;;;;;;;60.00;47.00;;;;;;;;6488864;39;8885;-57
2023/12/05 23:36:05;;;;;;;;;54.25;45.50;;;;;;;;6488168;39;8961;-56
2023/12/05 23:42:07;;;;;;;;;56.75;47.00;;;;;;;;6488399;39;8925;-56
2023/12/05 23:48:10;;;;;;;;;60.75;45.50;;;;;;;;6489445;39;8862;-56
2023/12/05 23:54:13;;;;;;;;;53.75;44.75;;;;;;;;6490839;31;8952;-57
